• Join FlightAware (Why Join?)
  • Login
  • US Flag 
04:50PM EDT


 

Airport Tracker/Info


-or-


 

Live Flight TrackerFlight Track Log ✈ N205MS ✈ 10-Jul-2013 ✈ KOXC - KFRG

Flight Track Log - Related Links

Times and Time Zones

All times are in EDT time to prevent confusion due to time zone crossing. See the N205MS flight status page for this flight to view local times or setup timezone preferences in your user account.

Time Position Orientation Groundspeed Altitude Reporting Facility
EDT Latitude Longitude Course Direction KTS MPH feet Rate Location/Type
02:07PM 41.4167 -73.1167 180° South 134 154 3,200  Level New York TRACON
02:08PM 41.3667 -73.1167 180° South 166 191 3,000 -120 Descending New York TRACON
02:09PM 41.3333 -73.1333 201° Southwest 172 198 3,000  Level New York TRACON
02:10PM 41.2833 -73.1500 176° South 170 196 3,000  Level New York TRACON
02:11PM 41.2780 -73.1283 176° South  Level FlightAware Approximate
02:11PM 41.2333 -73.1667 194° South 174 200 3,000  Level New York TRACON
02:12PM 41.1833 -73.1833 194° South 175 201 3,000  Level New York TRACON
02:13PM 41.2113 -73.2352 180° South  Level Estimated
02:13PM 41.1333 -73.2000 194° South 175 201 3,000  Level New York TRACON
02:14PM 41.0833 -73.2167 194° South 175 201 3,000  Level New York TRACON
02:15PM 41.0333 -73.2333 194° South 176 203 3,000  Level New York TRACON
02:16PM 40.9833 -73.2333 180° South 178 205 3,000  Level New York TRACON
02:17PM 40.9500 -73.2500 201° Southwest 180 207 3,000  Level New York TRACON
02:18PM 40.9000 -73.2667 194° South 175 201 3,000  Level New York TRACON
02:19PM 40.8500 -73.2833 194° South 176 203 3,000 -360 Level New York TRACON
02:20PM 40.8167 -73.3000 201° Southwest 183 211 2,400 -600 Descending New York TRACON
02:21PM 40.8000 -73.3667 252° West 164 189 1,800 -480 Descending New York TRACON
02:22PM 40.7667 -73.4167 229° Southwest 146 168 1,400 -720 Descending New York TRACON
02:23PM 40.7500 -73.4167 180° South 104 120 500 -1,020 Descending New York TRACON
02:25PM 40.7288 -73.4134 229° Southwest  Level Estimated
02:32PM 40.7288 -73.4134 229° Southwest  Level Estimated
02:33PM 40.7288 -73.4134 229° Southwest  Level Estimated